sensor_id;sensor_type;location;lat;lon;timestamp;temperature;humidity
5226;DHT22;2632;51.666;7.146;2022-12-18T00:01:47;-8.20;99.70
5226;DHT22;2632;51.666;7.146;2022-12-18T00:04:23;-8.10;99.80
5226;DHT22;2632;51.666;7.146;2022-12-18T00:06:50;-8.10;99.60
5226;DHT22;2632;51.666;7.146;2022-12-18T00:09:17;-8.00;99.70
5226;DHT22;2632;51.666;7.146;2022-12-18T00:11:44;-8.10;99.50
5226;DHT22;2632;51.666;7.146;2022-12-18T00:14:12;-8.10;99.60
5226;DHT22;2632;51.666;7.146;2022-12-18T00:16:39;-8.10;99.80
5226;DHT22;2632;51.666;7.146;2022-12-18T00:19:06;-8.00;99.70
5226;DHT22;2632;51.666;7.146;2022-12-18T00:21:33;-8.00;99.70
5226;DHT22;2632;51.666;7.146;2022-12-18T00:24:00;-8.00;99.60
5226;DHT22;2632;51.666;7.146;2022-12-18T00:26:31;-8.00;99.70
5226;DHT22;2632;51.666;7.146;2022-12-18T00:29:12;-8.10;99.80
5226;DHT22;2632;51.666;7.146;2022-12-18T00:31:41;-8.10;99.80
5226;DHT22;2632;51.666;7.146;2022-12-18T00:34:10;-8.10;99.70
5226;DHT22;2632;51.666;7.146;2022-12-18T00:36:40;-8.10;99.70
5226;DHT22;2632;51.666;7.146;2022-12-18T00:39:08;-8.10;99.60
5226;DHT22;2632;51.666;7.146;2022-12-18T00:41:35;-8.20;99.40
5226;DHT22;2632;51.666;7.146;2022-12-18T00:44:20;-8.40;99.40
5226;DHT22;2632;51.666;7.146;2022-12-18T00:46:48;-8.40;99.60
5226;DHT22;2632;51.666;7.146;2022-12-18T00:49:16;-8.30;99.60
5226;DHT22;2632;51.666;7.146;2022-12-18T00:51:45;-8.30;99.60
5226;DHT22;2632;51.666;7.146;2022-12-18T00:54:12;-8.30;99.60
5226;DHT22;2632;51.666;7.146;2022-12-18T00:56:39;-8.30;99.60
5226;DHT22;2632;51.666;7.146;2022-12-18T00:59:15;-8.30;99.60
5226;DHT22;2632;51.666;7.146;2022-12-18T01:01:42;-8.30;99.50
5226;DHT22;2632;51.666;7.146;2022-12-18T01:04:09;-8.30;99.50
5226;DHT22;2632;51.666;7.146;2022-12-18T01:06:36;-8.30;99.50
5226;DHT22;2632;51.666;7.146;2022-12-18T01:09:02;-8.30;99.50
5226;DHT22;2632;51.666;7.146;2022-12-18T01:11:30;-8.30;99.50
5226;DHT22;2632;51.666;7.146;2022-12-18T01:13:59;-8.40;99.60
5226;DHT22;2632;51.666;7.146;2022-12-18T01:16:26;-8.40;99.60
5226;DHT22;2632;51.666;7.146;2022-12-18T01:18:54;-8.40;99.60
5226;DHT22;2632;51.666;7.146;2022-12-18T01:21:22;-8.40;99.70
5226;DHT22;2632;51.666;7.146;2022-12-18T01:23:53;-8.40;99.70
5226;DHT22;2632;51.666;7.146;2022-12-18T01:26:20;-8.30;99.60
5226;DHT22;2632;51.666;7.146;2022-12-18T01:28:47;-8.30;99.50
5226;DHT22;2632;51.666;7.146;2022-12-18T01:31:15;-8.40;99.30
5226;DHT22;2632;51.666;7.146;2022-12-18T01:33:42;-8.40;99.20
5226;DHT22;2632;51.666;7.146;2022-12-18T01:36:24;-8.50;99.20
5226;DHT22;2632;51.666;7.146;2022-12-18T01:38:52;-8.60;99.20
5226;DHT22;2632;51.666;7.146;2022-12-18T01:41:25;-8.70;99.30
5226;DHT22;2632;51.666;7.146;2022-12-18T01:43:57;-8.70;99.40
5226;DHT22;2632;51.666;7.146;2022-12-18T01:46:25;-8.70;99.50
5226;DHT22;2632;51.666;7.146;2022-12-18T01:49:00;-8.60;99.60
5226;DHT22;2632;51.666;7.146;2022-12-18T01:51:29;-8.60;99.60
5226;DHT22;2632;51.666;7.146;2022-12-18T01:53:57;-8.70;99.50
5226;DHT22;2632;51.666;7.146;2022-12-18T01:56:24;-8.70;99.50
5226;DHT22;2632;51.666;7.146;2022-12-18T02:01:24;-8.60;99.70
5226;DHT22;2632;51.666;7.146;2022-12-18T02:03:52;-8.60;99.70
5226;DHT22;2632;51.666;7.146;2022-12-18T02:06:35;-8.50;99.60
5226;DHT22;2632;51.666;7.146;2022-12-18T02:09:18;-8.60;99.50
5226;DHT22;2632;51.666;7.146;2022-12-18T02:12:06;-8.60;99.60
5226;DHT22;2632;51.666;7.146;2022-12-18T02:15:02;-8.50;99.60
5226;DHT22;2632;51.666;7.146;2022-12-18T02:17:38;-8.50;99.50
5226;DHT22;2632;51.666;7.146;2022-12-18T02:20:18;-8.60;99.40
5226;DHT22;2632;51.666;7.146;2022-12-18T02:28:30;-8.70;99.70
5226;DHT22;2632;51.666;7.146;2022-12-18T02:31:01;-8.70;99.80
5226;DHT22;2632;51.666;7.146;2022-12-18T02:33:30;-8.70;99.80
5226;DHT22;2632;51.666;7.146;2022-12-18T02:35:58;-8.60;99.80
5226;DHT22;2632;51.666;7.146;2022-12-18T02:38:27;-8.60;99.90
5226;DHT22;2632;51.666;7.146;2022-12-18T02:40:55;-8.60;99.90
5226;DHT22;2632;51.666;7.146;2022-12-18T02:43:23;-8.60;99.90
5226;DHT22;2632;51.666;7.146;2022-12-18T02:45:54;-8.60;99.90
5226;DHT22;2632;51.666;7.146;2022-12-18T02:48:33;-8.60;99.80
5226;DHT22;2632;51.666;7.146;2022-12-18T02:54:01;-8.60;99.80
5226;DHT22;2632;51.666;7.146;2022-12-18T02:56:39;-8.50;99.90
5226;DHT22;2632;51.666;7.146;2022-12-18T02:59:17;-8.50;99.90
5226;DHT22;2632;51.666;7.146;2022-12-18T03:02:21;-8.50;99.90
5226;DHT22;2632;51.666;7.146;2022-12-18T03:05:03;-8.40;99.90
5226;DHT22;2632;51.666;7.146;2022-12-18T03:07:38;-8.40;99.90
5226;DHT22;2632;51.666;7.146;2022-12-18T03:10:07;-8.40;99.90
5226;DHT22;2632;51.666;7.146;2022-12-18T03:12:38;-8.40;99.90
5226;DHT22;2632;51.666;7.146;2022-12-18T03:15:27;-8.50;99.90
5226;DHT22;2632;51.666;7.146;2022-12-18T03:18:04;-8.50;99.80
5226;DHT22;2632;51.666;7.146;2022-12-18T03:20:34;-8.50;99.70
5226;DHT22;2632;51.666;7.146;2022-12-18T03:23:09;-8.40;99.80
5226;DHT22;2632;51.666;7.146;2022-12-18T03:25:39;-8.50;99.70
5226;DHT22;2632;51.666;7.146;2022-12-18T03:28:12;-8.60;99.80
5226;DHT22;2632;51.666;7.146;2022-12-18T03:30:40;-8.60;99.90
5226;DHT22;2632;51.666;7.146;2022-12-18T03:33:19;-8.60;99.90
5226;DHT22;2632;51.666;7.146;2022-12-18T03:35:46;-8.60;99.90
5226;DHT22;2632;51.666;7.146;2022-12-18T03:38:13;-8.70;99.80
5226;DHT22;2632;51.666;7.146;2022-12-18T03:43:55;-8.80;99.60
5226;DHT22;2632;51.666;7.146;2022-12-18T03:46:27;-8.80;99.60
5226;DHT22;2632;51.666;7.146;2022-12-18T03:49:23;-8.80;99.60
5226;DHT22;2632;51.666;7.146;2022-12-18T03:52:04;-8.80;99.90
5226;DHT22;2632;51.666;7.146;2022-12-18T03:54:33;-8.90;99.70
5226;DHT22;2632;51.666;7.146;2022-12-18T03:57:06;-8.90;99.80
5226;DHT22;2632;51.666;7.146;2022-12-18T03:59:35;-8.90;99.80
5226;DHT22;2632;51.666;7.146;2022-12-18T04:02:04;-8.90;99.80
5226;DHT22;2632;51.666;7.146;2022-12-18T04:04:34;-8.90;99.80
5226;DHT22;2632;51.666;7.146;2022-12-18T04:07:02;-8.90;99.80
5226;DHT22;2632;51.666;7.146;2022-12-18T04:09:30;-8.90;99.90
5226;DHT22;2632;51.666;7.146;2022-12-18T04:11:58;-8.90;99.90
5226;DHT22;2632;51.666;7.146;2022-12-18T04:14:24;-8.90;99.90
5226;DHT22;2632;51.666;7.146;2022-12-18T04:16:51;-8.90;99.90
5226;DHT22;2632;51.666;7.146;2022-12-18T04:19:17;-8.80;99.90
5226;DHT22;2632;51.666;7.146;2022-12-18T04:21:44;-8.80;99.90
5226;DHT22;2632;51.666;7.146;2022-12-18T04:24:11;-8.90;99.90
5226;DHT22;2632;51.666;7.146;2022-12-18T04:26:37;-8.90;99.90
5226;DHT22;2632;51.666;7.146;2022-12-18T04:29:04;-8.90;99.90
5226;DHT22;2632;51.666;7.146;2022-12-18T04:31:31;-8.90;99.90
5226;DHT22;2632;51.666;7.146;2022-12-18T04:33:57;-8.80;99.90
5226;DHT22;2632;51.666;7.146;2022-12-18T04:36:24;-8.80;99.90
5226;DHT22;2632;51.666;7.146;2022-12-18T04:38:53;-8.80;99.80
5226;DHT22;2632;51.666;7.146;2022-12-18T04:41:20;-8.90;99.70
5226;DHT22;2632;51.666;7.146;2022-12-18T04:43:47;-8.90;99.70
5226;DHT22;2632;51.666;7.146;2022-12-18T04:46:14;-8.90;99.80
5226;DHT22;2632;51.666;7.146;2022-12-18T04:48:40;-8.90;99.90
5226;DHT22;2632;51.666;7.146;2022-12-18T04:51:07;-8.90;99.80
5226;DHT22;2632;51.666;7.146;2022-12-18T04:53:34;-8.90;99.70
5226;DHT22;2632;51.666;7.146;2022-12-18T04:56:12;-8.90;99.70
5226;DHT22;2632;51.666;7.146;2022-12-18T04:58:40;-8.90;99.80
5226;DHT22;2632;51.666;7.146;2022-12-18T05:01:08;-8.90;99.80
5226;DHT22;2632;51.666;7.146;2022-12-18T05:03:36;-8.80;99.90
5226;DHT22;2632;51.666;7.146;2022-12-18T05:06:04;-8.80;99.80
5226;DHT22;2632;51.666;7.146;2022-12-18T05:08:32;-8.70;99.90
5226;DHT22;2632;51.666;7.146;2022-12-18T05:11:00;-8.60;99.90
5226;DHT22;2632;51.666;7.146;2022-12-18T05:13:27;-8.60;99.90
5226;DHT22;2632;51.666;7.146;2022-12-18T05:15:55;-8.50;99.90
5226;DHT22;2632;51.666;7.146;2022-12-18T05:18:23;-8.50;99.90
5226;DHT22;2632;51.666;7.146;2022-12-18T05:20:50;-8.50;99.90
5226;DHT22;2632;51.666;7.146;2022-12-18T05:23:17;-8.50;99.90
5226;DHT22;2632;51.666;7.146;2022-12-18T05:25:56;-8.50;99.90
5226;DHT22;2632;51.666;7.146;2022-12-18T05:28:24;-8.40;99.90
5226;DHT22;2632;51.666;7.146;2022-12-18T05:30:53;-8.30;99.90
5226;DHT22;2632;51.666;7.146;2022-12-18T05:33:21;-8.40;99.90
5226;DHT22;2632;51.666;7.146;2022-12-18T05:35:55;-8.50;99.80
5226;DHT22;2632;51.666;7.146;2022-12-18T05:38:23;-8.50;99.70
5226;DHT22;2632;51.666;7.146;2022-12-18T05:40:51;-8.60;99.70
5226;DHT22;2632;51.666;7.146;2022-12-18T05:43:18;-8.60;99.80
5226;DHT22;2632;51.666;7.146;2022-12-18T05:45:47;-8.60;99.80
5226;DHT22;2632;51.666;7.146;2022-12-18T05:48:15;-8.70;99.80
5226;DHT22;2632;51.666;7.146;2022-12-18T05:50:43;-8.70;99.90
5226;DHT22;2632;51.666;7.146;2022-12-18T05:53:16;-8.70;99.90
5226;DHT22;2632;51.666;7.146;2022-12-18T05:55:43;-8.70;99.80
5226;DHT22;2632;51.666;7.146;2022-12-18T05:58:12;-8.70;99.80
5226;DHT22;2632;51.666;7.146;2022-12-18T06:00:41;-8.70;99.80
5226;DHT22;2632;51.666;7.146;2022-12-18T06:03:09;-8.70;99.70
5226;DHT22;2632;51.666;7.146;2022-12-18T06:05:38;-8.70;99.80
5226;DHT22;2632;51.666;7.146;2022-12-18T06:08:05;-8.70;99.80
5226;DHT22;2632;51.666;7.146;2022-12-18T06:10:32;-8.80;99.70
5226;DHT22;2632;51.666;7.146;2022-12-18T06:12:59;-8.80;99.60
5226;DHT22;2632;51.666;7.146;2022-12-18T06:15:26;-8.80;99.50
5226;DHT22;2632;51.666;7.146;2022-12-18T06:17:52;-8.80;99.60
5226;DHT22;2632;51.666;7.146;2022-12-18T06:20:19;-8.90;99.60
5226;DHT22;2632;51.666;7.146;2022-12-18T06:22:46;-8.90;99.60
5226;DHT22;2632;51.666;7.146;2022-12-18T06:25:12;-8.90;99.60
5226;DHT22;2632;51.666;7.146;2022-12-18T06:27:39;-8.90;99.50
5226;DHT22;2632;51.666;7.146;2022-12-18T06:30:08;-9.00;99.50
5226;DHT22;2632;51.666;7.146;2022-12-18T06:32:35;-9.00;99.40
5226;DHT22;2632;51.666;7.146;2022-12-18T06:35:01;-9.10;99.40
5226;DHT22;2632;51.666;7.146;2022-12-18T06:37:28;-9.10;99.30
5226;DHT22;2632;51.666;7.146;2022-12-18T06:39:54;-9.20;99.30
5226;DHT22;2632;51.666;7.146;2022-12-18T06:42:23;-9.20;99.30
5226;DHT22;2632;51.666;7.146;2022-12-18T06:44:50;-9.20;99.30
5226;DHT22;2632;51.666;7.146;2022-12-18T06:47:17;-9.30;99.30
5226;DHT22;2632;51.666;7.146;2022-12-18T06:49:44;-9.40;99.20
5226;DHT22;2632;51.666;7.146;2022-12-18T06:52:10;-9.40;99.20
5226;DHT22;2632;51.666;7.146;2022-12-18T06:54:37;-9.40;99.30
5226;DHT22;2632;51.666;7.146;2022-12-18T06:57:03;-9.40;99.40
5226;DHT22;2632;51.666;7.146;2022-12-18T06:59:30;-9.50;99.30
5226;DHT22;2632;51.666;7.146;2022-12-18T07:01:57;-9.40;99.40
5226;DHT22;2632;51.666;7.146;2022-12-18T07:04:31;-9.30;99.50
5226;DHT22;2632;51.666;7.146;2022-12-18T07:06:58;-9.20;99.20
5226;DHT22;2632;51.666;7.146;2022-12-18T07:09:24;-9.20;99.00
5226;DHT22;2632;51.666;7.146;2022-12-18T07:11:52;-9.20;99.00
5226;DHT22;2632;51.666;7.146;2022-12-18T07:14:18;-9.20;99.00
5226;DHT22;2632;51.666;7.146;2022-12-18T07:16:45;-9.20;99.00
5226;DHT22;2632;51.666;7.146;2022-12-18T07:19:12;-9.10;99.10
5226;DHT22;2632;51.666;7.146;2022-12-18T07:21:38;-9.20;99.00
5226;DHT22;2632;51.666;7.146;2022-12-18T07:24:05;-9.10;99.20
5226;DHT22;2632;51.666;7.146;2022-12-18T07:26:32;-9.10;99.20
5226;DHT22;2632;51.666;7.146;2022-12-18T07:28:59;-9.10;99.20
5226;DHT22;2632;51.666;7.146;2022-12-18T07:31:26;-9.10;99.10
5226;DHT22;2632;51.666;7.146;2022-12-18T07:33:53;-9.00;99.20
5226;DHT22;2632;51.666;7.146;2022-12-18T07:36:20;-9.00;99.20
5226;DHT22;2632;51.666;7.146;2022-12-18T07:38:47;-9.00;99.10
5226;DHT22;2632;51.666;7.146;2022-12-18T07:41:14;-9.00;99.10
5226;DHT22;2632;51.666;7.146;2022-12-18T07:43:41;-9.00;99.00
5226;DHT22;2632;51.666;7.146;2022-12-18T07:46:10;-9.00;99.10
5226;DHT22;2632;51.666;7.146;2022-12-18T07:48:39;-8.90;99.20
5226;DHT22;2632;51.666;7.146;2022-12-18T07:51:07;-8.90;99.20
5226;DHT22;2632;51.666;7.146;2022-12-18T07:53:35;-8.80;99.40
5226;DHT22;2632;51.666;7.146;2022-12-18T07:56:05;-8.70;99.20
5226;DHT22;2632;51.666;7.146;2022-12-18T07:58:52;-8.60;99.20
5226;DHT22;2632;51.666;7.146;2022-12-18T08:01:19;-8.50;99.10
5226;DHT22;2632;51.666;7.146;2022-12-18T08:03:46;-8.40;99.00
5226;DHT22;2632;51.666;7.146;2022-12-18T08:06:13;-8.40;99.00
5226;DHT22;2632;51.666;7.146;2022-12-18T08:08:40;-8.30;98.80
5226;DHT22;2632;51.666;7.146;2022-12-18T08:11:08;-8.30;98.90
5226;DHT22;2632;51.666;7.146;2022-12-18T08:13:35;-8.20;98.80
5226;DHT22;2632;51.666;7.146;2022-12-18T08:16:06;-8.10;98.90
5226;DHT22;2632;51.666;7.146;2022-12-18T08:18:34;-8.00;98.80
5226;DHT22;2632;51.666;7.146;2022-12-18T08:21:09;-8.00;98.80
5226;DHT22;2632;51.666;7.146;2022-12-18T08:23:36;-7.90;99.00
5226;DHT22;2632;51.666;7.146;2022-12-18T08:26:09;-7.80;99.20
5226;DHT22;2632;51.666;7.146;2022-12-18T08:28:36;-7.70;99.30
5226;DHT22;2632;51.666;7.146;2022-12-18T08:31:03;-7.50;99.00
5226;DHT22;2632;51.666;7.146;2022-12-18T08:33:30;-7.30;99.20
5226;DHT22;2632;51.666;7.146;2022-12-18T08:35:58;-7.20;99.00
5226;DHT22;2632;51.666;7.146;2022-12-18T08:38:25;-7.10;98.60
5226;DHT22;2632;51.666;7.146;2022-12-18T08:41:08;-7.10;98.70
5226;DHT22;2632;51.666;7.146;2022-12-18T08:43:35;-7.00;99.00
5226;DHT22;2632;51.666;7.146;2022-12-18T08:46:22;-6.90;98.60
5226;DHT22;2632;51.666;7.146;2022-12-18T08:48:51;-6.80;98.70
5226;DHT22;2632;51.666;7.146;2022-12-18T08:51:19;-6.70;98.70
5226;DHT22;2632;51.666;7.146;2022-12-18T08:53:46;-6.60;98.70
5226;DHT22;2632;51.666;7.146;2022-12-18T08:56:14;-6.50;98.80
5226;DHT22;2632;51.666;7.146;2022-12-18T08:58:41;-6.30;98.90
5226;DHT22;2632;51.666;7.146;2022-12-18T09:01:10;-6.30;98.70
5226;DHT22;2632;51.666;7.146;2022-12-18T09:03:37;-6.20;98.70
5226;DHT22;2632;51.666;7.146;2022-12-18T09:06:05;-6.10;98.80
5226;DHT22;2632;51.666;7.146;2022-12-18T09:08:32;-6.00;98.90
5226;DHT22;2632;51.666;7.146;2022-12-18T09:10:58;-5.80;99.10
5226;DHT22;2632;51.666;7.146;2022-12-18T09:13:25;-5.60;99.20
5226;DHT22;2632;51.666;7.146;2022-12-18T09:15:53;-5.30;99.20
5226;DHT22;2632;51.666;7.146;2022-12-18T09:18:22;-5.10;99.10
5226;DHT22;2632;51.666;7.146;2022-12-18T09:20:49;-4.90;99.10
5226;DHT22;2632;51.666;7.146;2022-12-18T09:23:18;-4.70;99.10
5226;DHT22;2632;51.666;7.146;2022-12-18T09:25:44;-4.50;99.10
5226;DHT22;2632;51.666;7.146;2022-12-18T09:28:13;-4.40;99.00
5226;DHT22;2632;51.666;7.146;2022-12-18T09:30:44;-4.30;98.70
5226;DHT22;2632;51.666;7.146;2022-12-18T09:33:11;-4.30;98.40
5226;DHT22;2632;51.666;7.146;2022-12-18T09:35:38;-4.20;98.70
5226;DHT22;2632;51.666;7.146;2022-12-18T09:38:05;-4.10;99.00
5226;DHT22;2632;51.666;7.146;2022-12-18T09:40:44;-4.00;98.90
5226;DHT22;2632;51.666;7.146;2022-12-18T09:43:20;-3.90;98.80
5226;DHT22;2632;51.666;7.146;2022-12-18T09:45:56;-3.70;98.80
5226;DHT22;2632;51.666;7.146;2022-12-18T09:48:28;-3.70;98.70
5226;DHT22;2632;51.666;7.146;2022-12-18T09:51:02;-3.50;98.80
5226;DHT22;2632;51.666;7.146;2022-12-18T09:53:34;-3.40;98.70
5226;DHT22;2632;51.666;7.146;2022-12-18T09:56:03;-3.30;98.80
5226;DHT22;2632;51.666;7.146;2022-12-18T09:58:53;-3.10;98.80
5226;DHT22;2632;51.666;7.146;2022-12-18T10:01:22;-2.90;98.60
5226;DHT22;2632;51.666;7.146;2022-12-18T10:03:50;-2.70;98.90
5226;DHT22;2632;51.666;7.146;2022-12-18T10:12:18;-2.10;99.00
5226;DHT22;2632;51.666;7.146;2022-12-18T10:20:21;-1.60;98.60
5226;DHT22;2632;51.666;7.146;2022-12-18T10:25:40;-1.30;98.10
5226;DHT22;2632;51.666;7.146;2022-12-18T10:28:14;-1.20;98.10
5226;DHT22;2632;51.666;7.146;2022-12-18T10:30:43;-1.10;97.80
5226;DHT22;2632;51.666;7.146;2022-12-18T10:33:22;-1.00;97.40
5226;DHT22;2632;51.666;7.146;2022-12-18T10:35:52;-0.90;97.00
5226;DHT22;2632;51.666;7.146;2022-12-18T10:38:21;-0.90;95.80
5226;DHT22;2632;51.666;7.146;2022-12-18T10:40:56;-0.90;95.20
5226;DHT22;2632;51.666;7.146;2022-12-18T10:46:04;-0.60;96.50
5226;DHT22;2632;51.666;7.146;2022-12-18T10:48:50;-0.50;96.90
5226;DHT22;2632;51.666;7.146;2022-12-18T10:51:27;-0.50;97.10
5226;DHT22;2632;51.666;7.146;2022-12-18T10:54:00;-0.40;97.00
5226;DHT22;2632;51.666;7.146;2022-12-18T10:56:30;-0.10;96.70
5226;DHT22;2632;51.666;7.146;2022-12-18T10:59:06;-0.10;95.40
5226;DHT22;2632;51.666;7.146;2022-12-18T11:02:07;0.10;95.40
5226;DHT22;2632;51.666;7.146;2022-12-18T11:04:51;0.10;95.40
5226;DHT22;2632;51.666;7.146;2022-12-18T11:07:18;0.20;95.00
5226;DHT22;2632;51.666;7.146;2022-12-18T11:09:59;0.40;95.00
5226;DHT22;2632;51.666;7.146;2022-12-18T11:12:28;0.50;94.50
5226;DHT22;2632;51.666;7.146;2022-12-18T11:14:56;0.70;94.60
5226;DHT22;2632;51.666;7.146;2022-12-18T11:17:31;0.70;93.50
5226;DHT22;2632;51.666;7.146;2022-12-18T11:20:02;0.50;93.90
5226;DHT22;2632;51.666;7.146;2022-12-18T11:22:36;0.60;93.50
5226;DHT22;2632;51.666;7.146;2022-12-18T11:28:00;0.60;93.90
5226;DHT22;2632;51.666;7.146;2022-12-18T11:30:37;0.70;93.80
5226;DHT22;2632;51.666;7.146;2022-12-18T11:33:11;0.70;94.40
5226;DHT22;2632;51.666;7.146;2022-12-18T11:38:22;0.50;94.20
5226;DHT22;2632;51.666;7.146;2022-12-18T11:43:38;0.30;94.00
5226;DHT22;2632;51.666;7.146;2022-12-18T11:49:13;0.30;93.60
5226;DHT22;2632;51.666;7.146;2022-12-18T11:51:45;0.30;94.00
5226;DHT22;2632;51.666;7.146;2022-12-18T11:54:15;0.40;93.70
5226;DHT22;2632;51.666;7.146;2022-12-18T11:56:53;0.50;94.10
5226;DHT22;2632;51.666;7.146;2022-12-18T12:01:56;0.60;93.70
5226;DHT22;2632;51.666;7.146;2022-12-18T12:04:57;0.70;94.80
5226;DHT22;2632;51.666;7.146;2022-12-18T12:07:33;0.70;94.30
5226;DHT22;2632;51.666;7.146;2022-12-18T12:10:20;0.70;94.50
5226;DHT22;2632;51.666;7.146;2022-12-18T12:15:42;0.80;94.70
5226;DHT22;2632;51.666;7.146;2022-12-18T12:26:42;1.00;95.50
5226;DHT22;2632;51.666;7.146;2022-12-18T12:29:34;1.00;95.70
5226;DHT22;2632;51.666;7.146;2022-12-18T12:37:53;0.80;94.20
5226;DHT22;2632;51.666;7.146;2022-12-18T12:40:26;0.80;94.40
5226;DHT22;2632;51.666;7.146;2022-12-18T12:43:19;0.90;94.70
5226;DHT22;2632;51.666;7.146;2022-12-18T12:45:57;0.90;94.40
5226;DHT22;2632;51.666;7.146;2022-12-18T12:48:41;0.90;94.70
5226;DHT22;2632;51.666;7.146;2022-12-18T12:51:22;0.90;94.60
5226;DHT22;2632;51.666;7.146;2022-12-18T12:53:51;0.80;94.50
5226;DHT22;2632;51.666;7.146;2022-12-18T12:56:20;0.80;94.00
5226;DHT22;2632;51.666;7.146;2022-12-18T13:02:16;0.70;93.80
5226;DHT22;2632;51.666;7.146;2022-12-18T13:04:47;0.70;94.50
5226;DHT22;2632;51.666;7.146;2022-12-18T13:07:26;0.70;94.50
5226;DHT22;2632;51.666;7.146;2022-12-18T13:15:33;0.70;94.70
5226;DHT22;2632;51.666;7.146;2022-12-18T13:23:39;0.70;94.90
5226;DHT22;2632;51.666;7.146;2022-12-18T13:31:13;0.60;95.50
5226;DHT22;2632;51.666;7.146;2022-12-18T13:33:42;0.50;94.90
5226;DHT22;2632;51.666;7.146;2022-12-18T13:36:31;0.50;95.50
5226;DHT22;2632;51.666;7.146;2022-12-18T13:41:49;0.50;94.90
5226;DHT22;2632;51.666;7.146;2022-12-18T13:44:35;0.50;94.90
5226;DHT22;2632;51.666;7.146;2022-12-18T13:47:35;0.60;95.00
5226;DHT22;2632;51.666;7.146;2022-12-18T13:50:21;0.50;94.90
5226;DHT22;2632;51.666;7.146;2022-12-18T13:52:50;0.50;95.10
5226;DHT22;2632;51.666;7.146;2022-12-18T13:55:19;0.40;95.10
5226;DHT22;2632;51.666;7.146;2022-12-18T13:57:47;0.40;95.00
5226;DHT22;2632;51.666;7.146;2022-12-18T14:00:27;0.40;94.80
5226;DHT22;2632;51.666;7.146;2022-12-18T14:02:58;0.40;94.60
5226;DHT22;2632;51.666;7.146;2022-12-18T14:05:30;0.30;94.80
5226;DHT22;2632;51.666;7.146;2022-12-18T14:08:05;0.30;95.00
5226;DHT22;2632;51.666;7.146;2022-12-18T14:10:32;0.30;94.60
5226;DHT22;2632;51.666;7.146;2022-12-18T14:13:30;0.30;94.80
5226;DHT22;2632;51.666;7.146;2022-12-18T14:15:57;0.30;94.30
5226;DHT22;2632;51.666;7.146;2022-12-18T14:18:31;0.20;94.60
5226;DHT22;2632;51.666;7.146;2022-12-18T14:21:01;0.30;94.60
5226;DHT22;2632;51.666;7.146;2022-12-18T14:23:34;0.30;94.60
5226;DHT22;2632;51.666;7.146;2022-12-18T14:26:18;0.30;94.60
5226;DHT22;2632;51.666;7.146;2022-12-18T14:28:46;0.30;94.60
5226;DHT22;2632;51.666;7.146;2022-12-18T14:31:27;0.30;94.10
5226;DHT22;2632;51.666;7.146;2022-12-18T14:33:54;0.30;93.60
5226;DHT22;2632;51.666;7.146;2022-12-18T14:36:26;0.40;93.80
5226;DHT22;2632;51.666;7.146;2022-12-18T14:38:54;0.30;94.00
5226;DHT22;2632;51.666;7.146;2022-12-18T14:41:23;0.30;93.70
5226;DHT22;2632;51.666;7.146;2022-12-18T14:43:52;0.30;93.40
5226;DHT22;2632;51.666;7.146;2022-12-18T14:46:34;0.30;93.60
5226;DHT22;2632;51.666;7.146;2022-12-18T14:51:53;0.30;93.60
5226;DHT22;2632;51.666;7.146;2022-12-18T14:54:22;0.30;93.80
5226;DHT22;2632;51.666;7.146;2022-12-18T14:56:52;0.30;94.00
5226;DHT22;2632;51.666;7.146;2022-12-18T14:59:24;0.20;94.00
5226;DHT22;2632;51.666;7.146;2022-12-18T15:02:23;0.20;94.20
5226;DHT22;2632;51.666;7.146;2022-12-18T15:05:18;0.20;94.20
5226;DHT22;2632;51.666;7.146;2022-12-18T15:07:49;0.20;94.30
5226;DHT22;2632;51.666;7.146;2022-12-18T15:10:18;0.20;94.40
5226;DHT22;2632;51.666;7.146;2022-12-18T15:13:29;0.10;94.50
5226;DHT22;2632;51.666;7.146;2022-12-18T15:20:41;0.10;95.00
5226;DHT22;2632;51.666;7.146;2022-12-18T15:26:12;0.10;95.10
5226;DHT22;2632;51.666;7.146;2022-12-18T15:28:47;0.00;95.20
5226;DHT22;2632;51.666;7.146;2022-12-18T15:36:22;0.00;95.60
5226;DHT22;2632;51.666;7.146;2022-12-18T15:38:53;0.00;95.60
5226;DHT22;2632;51.666;7.146;2022-12-18T15:41:23;0.00;95.70
5226;DHT22;2632;51.666;7.146;2022-12-18T15:43:53;-0.10;95.80
5226;DHT22;2632;51.666;7.146;2022-12-18T15:46:21;-0.10;95.80
5226;DHT22;2632;51.666;7.146;2022-12-18T15:48:51;0.00;95.90
5226;DHT22;2632;51.666;7.146;2022-12-18T15:51:37;-0.10;95.90
5226;DHT22;2632;51.666;7.146;2022-12-18T15:54:08;-0.10;96.00
5226;DHT22;2632;51.666;7.146;2022-12-18T15:56:35;-0.10;96.10
5226;DHT22;2632;51.666;7.146;2022-12-18T15:59:22;-0.10;96.10
5226;DHT22;2632;51.666;7.146;2022-12-18T16:01:51;-0.10;96.20
5226;DHT22;2632;51.666;7.146;2022-12-18T16:04:20;-0.10;96.20
5226;DHT22;2632;51.666;7.146;2022-12-18T16:06:50;-0.10;96.20
5226;DHT22;2632;51.666;7.146;2022-12-18T16:09:38;-0.10;96.10
5226;DHT22;2632;51.666;7.146;2022-12-18T16:12:06;-0.10;96.10
5226;DHT22;2632;51.666;7.146;2022-12-18T16:14:33;-0.10;96.30
5226;DHT22;2632;51.666;7.146;2022-12-18T16:17:05;-0.10;96.30
5226;DHT22;2632;51.666;7.146;2022-12-18T16:19:31;-0.10;96.20
5226;DHT22;2632;51.666;7.146;2022-12-18T16:21:58;-0.10;96.20
5226;DHT22;2632;51.666;7.146;2022-12-18T16:24:27;-0.10;95.70
5226;DHT22;2632;51.666;7.146;2022-12-18T16:26:56;-0.10;95.50
5226;DHT22;2632;51.666;7.146;2022-12-18T16:29:24;0.00;95.00
5226;DHT22;2632;51.666;7.146;2022-12-18T16:31:54;0.00;95.10
5226;DHT22;2632;51.666;7.146;2022-12-18T16:34:28;0.00;94.70
5226;DHT22;2632;51.666;7.146;2022-12-18T16:37:00;0.10;94.90
5226;DHT22;2632;51.666;7.146;2022-12-18T16:39:31;0.00;94.70
5226;DHT22;2632;51.666;7.146;2022-12-18T16:42:04;0.20;92.70
5226;DHT22;2632;51.666;7.146;2022-12-18T16:44:32;0.40;92.60
5226;DHT22;2632;51.666;7.146;2022-12-18T16:46:59;0.50;92.40
5226;DHT22;2632;51.666;7.146;2022-12-18T16:49:28;0.50;91.80
5226;DHT22;2632;51.666;7.146;2022-12-18T16:51:55;0.60;91.60
5226;DHT22;2632;51.666;7.146;2022-12-18T16:54:22;0.60;91.80
5226;DHT22;2632;51.666;7.146;2022-12-18T16:56:50;0.60;91.90
5226;DHT22;2632;51.666;7.146;2022-12-18T16:59:20;0.70;90.80
5226;DHT22;2632;51.666;7.146;2022-12-18T17:01:49;0.80;90.60
5226;DHT22;2632;51.666;7.146;2022-12-18T17:04:16;0.90;90.90
5226;DHT22;2632;51.666;7.146;2022-12-18T17:06:45;0.90;90.50
5226;DHT22;2632;51.666;7.146;2022-12-18T17:09:18;0.90;90.30
5226;DHT22;2632;51.666;7.146;2022-12-18T17:11:52;0.90;90.70
5226;DHT22;2632;51.666;7.146;2022-12-18T17:14:21;0.90;91.00
5226;DHT22;2632;51.666;7.146;2022-12-18T17:16:48;0.90;91.30
5226;DHT22;2632;51.666;7.146;2022-12-18T17:19:36;1.00;90.90
5226;DHT22;2632;51.666;7.146;2022-12-18T17:22:04;1.00;91.10
5226;DHT22;2632;51.666;7.146;2022-12-18T17:24:36;1.00;90.80
5226;DHT22;2632;51.666;7.146;2022-12-18T17:27:04;1.10;90.90
5226;DHT22;2632;51.666;7.146;2022-12-18T17:29:31;1.10;91.20
5226;DHT22;2632;51.666;7.146;2022-12-18T17:31:57;1.20;90.80
5226;DHT22;2632;51.666;7.146;2022-12-18T17:34:26;1.20;90.70
5226;DHT22;2632;51.666;7.146;2022-12-18T17:36:53;1.30;90.90
5226;DHT22;2632;51.666;7.146;2022-12-18T17:39:20;1.30;91.00
5226;DHT22;2632;51.666;7.146;2022-12-18T17:41:47;1.30;90.90
5226;DHT22;2632;51.666;7.146;2022-12-18T17:44:15;1.30;91.20
5226;DHT22;2632;51.666;7.146;2022-12-18T17:46:42;1.40;91.20
5226;DHT22;2632;51.666;7.146;2022-12-18T17:49:10;1.40;91.20
5226;DHT22;2632;51.666;7.146;2022-12-18T17:51:37;1.40;91.50
5226;DHT22;2632;51.666;7.146;2022-12-18T17:54:04;1.40;91.50
5226;DHT22;2632;51.666;7.146;2022-12-18T17:56:31;1.40;91.70
5226;DHT22;2632;51.666;7.146;2022-12-18T17:58:58;1.40;91.60
5226;DHT22;2632;51.666;7.146;2022-12-18T18:01:26;1.40;91.70
5226;DHT22;2632;51.666;7.146;2022-12-18T18:03:53;1.40;91.90
5226;DHT22;2632;51.666;7.146;2022-12-18T18:06:23;1.40;91.90
5226;DHT22;2632;51.666;7.146;2022-12-18T18:08:52;1.30;92.00
5226;DHT22;2632;51.666;7.146;2022-12-18T18:11:20;1.40;92.10
5226;DHT22;2632;51.666;7.146;2022-12-18T18:14:10;1.40;92.10